Aérodrome :
LOGIN :

S'inscrire | Disclaimer

   EN    FR    IT 

 










Légende :    VFR   VFR Marginal   IFR   IFR Intensif   IFR Très Intensif
Visi : 
Plafond : 
>= 8 km
>= 3000ft
5 à 8 km
1000 à 3000 ft
1500m à 5 km
500 à 1000 ft
800 à 1500m
200 à 500 ft
< 800m
< 200 ft
Symboles :   Orages  Brouillard  Fortes neiges  Fortes précipitations  Vent > 20 kt
SIGMETs :   Divers  Orages  Givrage  Turbulence  Onde Orograph.  Cendres Volcan.






- Altitude de l'aérodrome : 2425 ft


ETHA - Altenstadt Army

DERNIER METAR :
  • 041520Z 11004KT 8000 RA FEW008 OVC080 13/12 Q1015 BLACKBLU BLU TEMPO GRN

METARs EXPIRÉS :
  • 041455Z 10004KT 8000 RA SCT008 BKN070 14/13 Q1015 BLACKBLU BLU TEMPO GRN
  • 041420Z 10005KT 9999 -RA SCT010 BKN070 14/12 Q1015 BLACKBLU BLU TEMPO GRN
  • 041320Z 10005KT 9999 -RA FEW012 BKN070 15/12 Q1015 BLACKBLU BLU TEMPO GRN

TAF TAF ETHA
Valide du 04 à 14h jusqu'au 04 à 23h UTC


041310Z 0414/0423 VRB03KT 9999 -RA FEW015 SCT030 BKN070
TEMPO 0414/0423 VRB03KT 6000 RA BKN010 BKN050



MET'MAP, la Météo Aéronautique d'un coup d'oeil ! - Copyright ORBIFLY Décembre 2007 - Disclaimer

ORBIFLY MET'MAP TEAM :

Programmation & Développement : Alexandra Zaïnal
Sur une idée originale de : Baudouin d'Aumeries
Assistance à la programmation : Marc-Olivier Méhu
Soutien technique & logistique : Manuel Goepfert

Contact : metmap@orbifly.com




SOURCES & CREDITS :

   NOAA